sensor_id;sensor_type;location;lat;lon;timestamp;P1;durP1;ratioP1;P2;durP2;ratioP2
13641;SDS011;6894;52.196;9.904;2023-04-07T00:01:29;11.30;;;8.87;;
13641;SDS011;6894;52.196;9.904;2023-04-07T00:03:56;9.87;;;8.40;;
13641;SDS011;6894;52.196;9.904;2023-04-07T00:06:23;11.30;;;9.57;;
13641;SDS011;6894;52.196;9.904;2023-04-07T00:08:51;10.03;;;8.10;;
13641;SDS011;6894;52.196;9.904;2023-04-07T00:11:18;12.37;;;9.00;;
13641;SDS011;6894;52.196;9.904;2023-04-07T00:13:46;11.47;;;8.13;;
13641;SDS011;6894;52.196;9.904;2023-04-07T00:16:13;11.80;;;8.57;;
13641;SDS011;6894;52.196;9.904;2023-04-07T00:18:39;9.93;;;7.97;;
13641;SDS011;6894;52.196;9.904;2023-04-07T00:21:06;13.53;;;8.33;;
13641;SDS011;6894;52.196;9.904;2023-04-07T00:23:33;10.50;;;8.10;;
13641;SDS011;6894;52.196;9.904;2023-04-07T00:26:00;10.40;;;8.97;;
13641;SDS011;6894;52.196;9.904;2023-04-07T00:28:27;10.57;;;7.70;;
13641;SDS011;6894;52.196;9.904;2023-04-07T00:30:55;12.57;;;8.57;;
13641;SDS011;6894;52.196;9.904;2023-04-07T00:33:21;10.23;;;8.37;;
13641;SDS011;6894;52.196;9.904;2023-04-07T00:35:48;12.07;;;8.90;;
13641;SDS011;6894;52.196;9.904;2023-04-07T00:38:15;9.57;;;7.80;;
13641;SDS011;6894;52.196;9.904;2023-04-07T00:40:42;10.67;;;9.17;;
13641;SDS011;6894;52.196;9.904;2023-04-07T00:43:08;11.93;;;9.23;;
13641;SDS011;6894;52.196;9.904;2023-04-07T00:45:36;13.07;;;10.13;;
13641;SDS011;6894;52.196;9.904;2023-04-07T00:48:04;12.77;;;10.13;;
13641;SDS011;6894;52.196;9.904;2023-04-07T00:50:31;10.80;;;9.10;;
13641;SDS011;6894;52.196;9.904;2023-04-07T00:52:58;12.07;;;9.57;;
13641;SDS011;6894;52.196;9.904;2023-04-07T00:55:26;10.80;;;8.30;;
13641;SDS011;6894;52.196;9.904;2023-04-07T00:57:53;11.03;;;9.17;;
13641;SDS011;6894;52.196;9.904;2023-04-07T01:00:19;10.27;;;8.93;;
13641;SDS011;6894;52.196;9.904;2023-04-07T01:02:47;11.83;;;10.00;;
13641;SDS011;6894;52.196;9.904;2023-04-07T01:05:22;10.80;;;9.20;;
13641;SDS011;6894;52.196;9.904;2023-04-07T01:07:57;13.03;;;9.97;;
13641;SDS011;6894;52.196;9.904;2023-04-07T01:10:32;12.43;;;9.00;;
13641;SDS011;6894;52.196;9.904;2023-04-07T01:13:05;12.27;;;10.30;;
13641;SDS011;6894;52.196;9.904;2023-04-07T01:15:36;10.67;;;9.20;;
13641;SDS011;6894;52.196;9.904;2023-04-07T01:18:07;10.77;;;9.27;;
13641;SDS011;6894;52.196;9.904;2023-04-07T01:20:38;8.97;;;7.80;;
13641;SDS011;6894;52.196;9.904;2023-04-07T01:23:08;11.07;;;8.37;;
13641;SDS011;6894;52.196;9.904;2023-04-07T01:31:33;9.03;;;7.33;;
13641;SDS011;6894;52.196;9.904;2023-04-07T01:34:02;11.73;;;9.10;;
13641;SDS011;6894;52.196;9.904;2023-04-07T01:36:29;9.97;;;7.93;;
13641;SDS011;6894;52.196;9.904;2023-04-07T01:38:57;11.83;;;8.47;;
13641;SDS011;6894;52.196;9.904;2023-04-07T01:41:25;8.80;;;7.90;;
13641;SDS011;6894;52.196;9.904;2023-04-07T01:43:53;10.20;;;7.70;;
13641;SDS011;6894;52.196;9.904;2023-04-07T01:46:21;8.77;;;7.87;;
13641;SDS011;6894;52.196;9.904;2023-04-07T01:48:49;10.97;;;8.17;;
13641;SDS011;6894;52.196;9.904;2023-04-07T01:51:18;9.17;;;7.73;;
13641;SDS011;6894;52.196;9.904;2023-04-07T01:53:46;11.13;;;8.57;;
13641;SDS011;6894;52.196;9.904;2023-04-07T01:56:14;9.17;;;7.87;;
13641;SDS011;6894;52.196;9.904;2023-04-07T01:58:41;13.10;;;9.67;;
13641;SDS011;6894;52.196;9.904;2023-04-07T02:01:08;10.33;;;9.03;;
13641;SDS011;6894;52.196;9.904;2023-04-07T02:03:37;10.93;;;9.60;;
13641;SDS011;6894;52.196;9.904;2023-04-07T02:06:11;9.30;;;8.40;;
13641;SDS011;6894;52.196;9.904;2023-04-07T02:08:41;12.90;;;9.73;;
13641;SDS011;6894;52.196;9.904;2023-04-07T02:11:14;11.33;;;8.23;;
13641;SDS011;6894;52.196;9.904;2023-04-07T02:13:43;14.13;;;9.47;;
13641;SDS011;6894;52.196;9.904;2023-04-07T02:16:11;10.27;;;8.90;;
13641;SDS011;6894;52.196;9.904;2023-04-07T02:18:40;12.50;;;9.53;;
13641;SDS011;6894;52.196;9.904;2023-04-07T02:21:07;11.60;;;9.37;;
13641;SDS011;6894;52.196;9.904;2023-04-07T02:23:36;11.40;;;9.80;;
13641;SDS011;6894;52.196;9.904;2023-04-07T02:26:03;9.60;;;8.30;;
13641;SDS011;6894;52.196;9.904;2023-04-07T02:28:30;11.23;;;9.23;;
13641;SDS011;6894;52.196;9.904;2023-04-07T02:30:57;11.63;;;8.53;;
13641;SDS011;6894;52.196;9.904;2023-04-07T02:33:24;13.93;;;9.17;;
13641;SDS011;6894;52.196;9.904;2023-04-07T02:35:50;9.13;;;8.17;;
13641;SDS011;6894;52.196;9.904;2023-04-07T02:38:17;12.67;;;8.17;;
13641;SDS011;6894;52.196;9.904;2023-04-07T02:40:45;12.13;;;8.97;;
13641;SDS011;6894;52.196;9.904;2023-04-07T02:43:12;10.83;;;9.53;;
13641;SDS011;6894;52.196;9.904;2023-04-07T02:45:40;11.93;;;9.87;;
13641;SDS011;6894;52.196;9.904;2023-04-07T02:48:07;11.13;;;9.53;;
13641;SDS011;6894;52.196;9.904;2023-04-07T02:50:34;12.90;;;10.30;;
13641;SDS011;6894;52.196;9.904;2023-04-07T02:53:00;12.13;;;9.80;;
13641;SDS011;6894;52.196;9.904;2023-04-07T02:55:27;11.10;;;8.67;;
13641;SDS011;6894;52.196;9.904;2023-04-07T02:57:55;13.33;;;10.30;;
13641;SDS011;6894;52.196;9.904;2023-04-07T03:00:22;13.90;;;9.87;;
13641;SDS011;6894;52.196;9.904;2023-04-07T03:02:49;9.97;;;8.87;;
13641;SDS011;6894;52.196;9.904;2023-04-07T03:05:15;11.43;;;9.53;;
13641;SDS011;6894;52.196;9.904;2023-04-07T03:07:42;13.00;;;9.80;;
13641;SDS011;6894;52.196;9.904;2023-04-07T03:10:09;11.80;;;9.27;;
13641;SDS011;6894;52.196;9.904;2023-04-07T03:12:36;15.17;;;9.80;;
13641;SDS011;6894;52.196;9.904;2023-04-07T03:15:07;9.87;;;8.87;;
13641;SDS011;6894;52.196;9.904;2023-04-07T03:17:34;12.33;;;10.13;;
13641;SDS011;6894;52.196;9.904;2023-04-07T03:20:01;12.87;;;10.77;;
13641;SDS011;6894;52.196;9.904;2023-04-07T03:22:28;10.53;;;9.47;;
13641;SDS011;6894;52.196;9.904;2023-04-07T03:24:55;12.77;;;10.60;;
13641;SDS011;6894;52.196;9.904;2023-04-07T03:27:22;12.73;;;10.23;;
13641;SDS011;6894;52.196;9.904;2023-04-07T03:29:48;13.57;;;9.97;;
13641;SDS011;6894;52.196;9.904;2023-04-07T03:32:17;9.43;;;8.40;;
13641;SDS011;6894;52.196;9.904;2023-04-07T03:34:44;14.27;;;10.83;;
13641;SDS011;6894;52.196;9.904;2023-04-07T03:37:10;10.90;;;9.77;;
13641;SDS011;6894;52.196;9.904;2023-04-07T03:39:37;12.73;;;11.43;;
13641;SDS011;6894;52.196;9.904;2023-04-07T03:42:05;12.70;;;10.43;;
13641;SDS011;6894;52.196;9.904;2023-04-07T03:44:31;12.67;;;10.53;;
13641;SDS011;6894;52.196;9.904;2023-04-07T03:46:59;12.17;;;10.40;;
13641;SDS011;6894;52.196;9.904;2023-04-07T03:49:27;12.73;;;11.43;;
13641;SDS011;6894;52.196;9.904;2023-04-07T03:51:54;12.37;;;10.83;;
13641;SDS011;6894;52.196;9.904;2023-04-07T03:54:21;12.97;;;9.90;;
13641;SDS011;6894;52.196;9.904;2023-04-07T03:56:48;11.17;;;8.50;;
13641;SDS011;6894;52.196;9.904;2023-04-07T03:59:15;15.00;;;10.63;;
13641;SDS011;6894;52.196;9.904;2023-04-07T04:01:42;10.30;;;9.30;;
13641;SDS011;6894;52.196;9.904;2023-04-07T04:04:09;13.63;;;11.83;;
13641;SDS011;6894;52.196;9.904;2023-04-07T04:06:37;11.63;;;10.57;;
13641;SDS011;6894;52.196;9.904;2023-04-07T04:09:03;14.70;;;11.43;;
13641;SDS011;6894;52.196;9.904;2023-04-07T04:11:30;11.13;;;9.77;;
13641;SDS011;6894;52.196;9.904;2023-04-07T04:13:57;12.37;;;10.70;;
13641;SDS011;6894;52.196;9.904;2023-04-07T04:16:24;11.23;;;10.07;;
13641;SDS011;6894;52.196;9.904;2023-04-07T04:18:50;15.93;;;12.20;;
13641;SDS011;6894;52.196;9.904;2023-04-07T04:21:17;10.13;;;8.97;;
13641;SDS011;6894;52.196;9.904;2023-04-07T04:23:45;16.10;;;11.80;;
13641;SDS011;6894;52.196;9.904;2023-04-07T04:26:12;11.77;;;10.40;;
13641;SDS011;6894;52.196;9.904;2023-04-07T04:28:39;14.87;;;11.20;;
13641;SDS011;6894;52.196;9.904;2023-04-07T04:31:05;14.53;;;10.53;;
13641;SDS011;6894;52.196;9.904;2023-04-07T04:33:32;16.37;;;11.30;;
13641;SDS011;6894;52.196;9.904;2023-04-07T04:35:59;11.67;;;10.47;;
13641;SDS011;6894;52.196;9.904;2023-04-07T04:38:25;15.97;;;12.13;;
13641;SDS011;6894;52.196;9.904;2023-04-07T04:40:54;17.07;;;11.90;;
13641;SDS011;6894;52.196;9.904;2023-04-07T04:43:20;13.30;;;11.37;;
13641;SDS011;6894;52.196;9.904;2023-04-07T04:45:47;15.23;;;12.53;;
13641;SDS011;6894;52.196;9.904;2023-04-07T04:48:14;15.50;;;12.27;;
13641;SDS011;6894;52.196;9.904;2023-04-07T04:50:41;16.63;;;12.27;;
13641;SDS011;6894;52.196;9.904;2023-04-07T04:53:08;12.40;;;11.10;;
13641;SDS011;6894;52.196;9.904;2023-04-07T04:55:35;16.77;;;13.20;;
13641;SDS011;6894;52.196;9.904;2023-04-07T04:58:03;13.60;;;11.90;;
13641;SDS011;6894;52.196;9.904;2023-04-07T05:00:30;13.47;;;11.40;;
13641;SDS011;6894;52.196;9.904;2023-04-07T05:02:56;18.77;;;12.63;;
13641;SDS011;6894;52.196;9.904;2023-04-07T05:05:23;13.37;;;11.77;;
13641;SDS011;6894;52.196;9.904;2023-04-07T05:07:50;17.77;;;12.63;;
13641;SDS011;6894;52.196;9.904;2023-04-07T05:10:16;13.83;;;11.70;;
13641;SDS011;6894;52.196;9.904;2023-04-07T05:12:43;32.03;;;14.87;;
13641;SDS011;6894;52.196;9.904;2023-04-07T05:15:11;15.37;;;11.53;;
13641;SDS011;6894;52.196;9.904;2023-04-07T05:17:39;19.83;;;13.77;;
13641;SDS011;6894;52.196;9.904;2023-04-07T05:20:07;16.07;;;11.57;;
13641;SDS011;6894;52.196;9.904;2023-04-07T05:22:35;17.90;;;12.57;;
13641;SDS011;6894;52.196;9.904;2023-04-07T05:25:02;13.20;;;11.90;;
13641;SDS011;6894;52.196;9.904;2023-04-07T05:27:29;16.43;;;12.97;;
13641;SDS011;6894;52.196;9.904;2023-04-07T05:29:56;13.73;;;12.10;;
13641;SDS011;6894;52.196;9.904;2023-04-07T05:32:24;15.13;;;12.27;;
13641;SDS011;6894;52.196;9.904;2023-04-07T05:34:53;12.53;;;11.30;;
13641;SDS011;6894;52.196;9.904;2023-04-07T05:37:20;14.43;;;11.97;;
13641;SDS011;6894;52.196;9.904;2023-04-07T05:39:46;14.33;;;12.40;;
13641;SDS011;6894;52.196;9.904;2023-04-07T05:42:13;15.57;;;12.87;;
13641;SDS011;6894;52.196;9.904;2023-04-07T05:44:40;15.60;;;11.60;;
13641;SDS011;6894;52.196;9.904;2023-04-07T05:47:06;16.67;;;12.53;;
13641;SDS011;6894;52.196;9.904;2023-04-07T05:49:35;17.00;;;12.40;;
13641;SDS011;6894;52.196;9.904;2023-04-07T05:52:01;16.70;;;13.83;;
13641;SDS011;6894;52.196;9.904;2023-04-07T05:54:30;13.30;;;11.77;;
13641;SDS011;6894;52.196;9.904;2023-04-07T05:56:56;20.40;;;12.83;;
13641;SDS011;6894;52.196;9.904;2023-04-07T05:59:23;14.47;;;12.97;;
13641;SDS011;6894;52.196;9.904;2023-04-07T06:01:50;17.03;;;13.37;;
13641;SDS011;6894;52.196;9.904;2023-04-07T06:04:17;14.20;;;12.20;;
13641;SDS011;6894;52.196;9.904;2023-04-07T06:06:45;16.63;;;13.67;;
13641;SDS011;6894;52.196;9.904;2023-04-07T06:09:12;14.37;;;12.60;;
13641;SDS011;6894;52.196;9.904;2023-04-07T06:11:39;15.20;;;13.30;;
13641;SDS011;6894;52.196;9.904;2023-04-07T06:14:06;17.60;;;13.37;;
13641;SDS011;6894;52.196;9.904;2023-04-07T06:16:33;13.93;;;12.67;;
13641;SDS011;6894;52.196;9.904;2023-04-07T06:19:00;15.80;;;13.77;;
13641;SDS011;6894;52.196;9.904;2023-04-07T06:21:26;12.87;;;11.57;;
13641;SDS011;6894;52.196;9.904;2023-04-07T06:23:54;15.20;;;13.20;;
13641;SDS011;6894;52.196;9.904;2023-04-07T06:26:21;15.77;;;13.10;;
13641;SDS011;6894;52.196;9.904;2023-04-07T06:28:48;15.87;;;14.00;;
13641;SDS011;6894;52.196;9.904;2023-04-07T06:31:15;14.03;;;12.53;;
13641;SDS011;6894;52.196;9.904;2023-04-07T06:33:42;14.43;;;12.93;;
13641;SDS011;6894;52.196;9.904;2023-04-07T06:36:09;14.07;;;12.27;;
13641;SDS011;6894;52.196;9.904;2023-04-07T06:38:37;17.97;;;13.70;;
13641;SDS011;6894;52.196;9.904;2023-04-07T06:41:05;14.03;;;12.60;;
13641;SDS011;6894;52.196;9.904;2023-04-07T06:43:35;17.83;;;14.13;;
13641;SDS011;6894;52.196;9.904;2023-04-07T06:46:02;15.20;;;13.63;;
13641;SDS011;6894;52.196;9.904;2023-04-07T06:48:29;18.57;;;15.13;;
13641;SDS011;6894;52.196;9.904;2023-04-07T06:50:56;15.53;;;14.13;;
13641;SDS011;6894;52.196;9.904;2023-04-07T06:53:22;17.07;;;15.23;;
13641;SDS011;6894;52.196;9.904;2023-04-07T06:55:49;15.47;;;13.87;;
13641;SDS011;6894;52.196;9.904;2023-04-07T06:58:17;17.20;;;15.00;;
13641;SDS011;6894;52.196;9.904;2023-04-07T07:00:44;15.60;;;14.10;;
13641;SDS011;6894;52.196;9.904;2023-04-07T07:03:11;19.13;;;16.23;;
13641;SDS011;6894;52.196;9.904;2023-04-07T07:05:37;14.57;;;13.17;;
13641;SDS011;6894;52.196;9.904;2023-04-07T07:08:04;15.57;;;13.93;;
13641;SDS011;6894;52.196;9.904;2023-04-07T07:10:31;14.10;;;12.60;;
13641;SDS011;6894;52.196;9.904;2023-04-07T07:12:58;15.43;;;13.93;;
13641;SDS011;6894;52.196;9.904;2023-04-07T07:15:26;14.23;;;12.83;;
13641;SDS011;6894;52.196;9.904;2023-04-07T07:17:53;15.97;;;14.27;;
13641;SDS011;6894;52.196;9.904;2023-04-07T07:20:19;14.67;;;13.23;;
13641;SDS011;6894;52.196;9.904;2023-04-07T07:22:49;15.97;;;14.27;;
13641;SDS011;6894;52.196;9.904;2023-04-07T07:25:16;13.97;;;12.67;;
13641;SDS011;6894;52.196;9.904;2023-04-07T07:27:43;18.93;;;15.23;;
13641;SDS011;6894;52.196;9.904;2023-04-07T07:30:10;13.47;;;12.27;;
13641;SDS011;6894;52.196;9.904;2023-04-07T07:32:38;15.90;;;13.37;;
13641;SDS011;6894;52.196;9.904;2023-04-07T07:35:05;13.97;;;12.57;;
13641;SDS011;6894;52.196;9.904;2023-04-07T07:37:32;15.70;;;13.83;;
13641;SDS011;6894;52.196;9.904;2023-04-07T07:39:58;14.70;;;12.97;;
13641;SDS011;6894;52.196;9.904;2023-04-07T07:42:25;15.57;;;13.97;;
13641;SDS011;6894;52.196;9.904;2023-04-07T07:44:52;13.33;;;12.03;;
13641;SDS011;6894;52.196;9.904;2023-04-07T07:47:19;14.57;;;13.07;;
13641;SDS011;6894;52.196;9.904;2023-04-07T07:49:47;16.20;;;12.50;;
13641;SDS011;6894;52.196;9.904;2023-04-07T07:52:14;13.23;;;11.83;;
13641;SDS011;6894;52.196;9.904;2023-04-07T07:54:40;12.97;;;11.60;;
13641;SDS011;6894;52.196;9.904;2023-04-07T07:57:07;12.40;;;11.20;;
13641;SDS011;6894;52.196;9.904;2023-04-07T07:59:34;14.03;;;11.77;;
13641;SDS011;6894;52.196;9.904;2023-04-07T08:02:00;12.10;;;10.90;;
13641;SDS011;6894;52.196;9.904;2023-04-07T08:04:27;12.67;;;11.23;;
13641;SDS011;6894;52.196;9.904;2023-04-07T08:06:55;12.33;;;11.13;;
13641;SDS011;6894;52.196;9.904;2023-04-07T08:09:22;12.47;;;11.30;;
13641;SDS011;6894;52.196;9.904;2023-04-07T08:11:50;11.80;;;10.70;;
13641;SDS011;6894;52.196;9.904;2023-04-07T08:14:17;13.63;;;11.10;;
13641;SDS011;6894;52.196;9.904;2023-04-07T08:16:44;11.97;;;10.87;;
13641;SDS011;6894;52.196;9.904;2023-04-07T08:19:11;11.07;;;10.03;;
13641;SDS011;6894;52.196;9.904;2023-04-07T08:21:38;12.20;;;10.93;;
13641;SDS011;6894;52.196;9.904;2023-04-07T08:24:07;13.03;;;10.63;;
13641;SDS011;6894;52.196;9.904;2023-04-07T08:26:35;12.07;;;10.93;;
13641;SDS011;6894;52.196;9.904;2023-04-07T08:29:02;11.57;;;10.37;;
13641;SDS011;6894;52.196;9.904;2023-04-07T08:31:28;11.17;;;10.07;;
13641;SDS011;6894;52.196;9.904;2023-04-07T08:33:55;10.97;;;10.03;;
13641;SDS011;6894;52.196;9.904;2023-04-07T08:36:23;13.07;;;10.20;;
13641;SDS011;6894;52.196;9.904;2023-04-07T08:38:50;11.20;;;10.20;;
13641;SDS011;6894;52.196;9.904;2023-04-07T08:41:26;10.43;;;9.43;;
13641;SDS011;6894;52.196;9.904;2023-04-07T08:43:58;10.63;;;9.63;;
13641;SDS011;6894;52.196;9.904;2023-04-07T08:46:27;12.90;;;10.17;;
13641;SDS011;6894;52.196;9.904;2023-04-07T08:48:55;10.50;;;9.50;;
13641;SDS011;6894;52.196;9.904;2023-04-07T08:51:25;10.57;;;9.57;;
13641;SDS011;6894;52.196;9.904;2023-04-07T08:53:53;10.47;;;9.23;;
13641;SDS011;6894;52.196;9.904;2023-04-07T08:56:27;12.10;;;9.83;;
13641;SDS011;6894;52.196;9.904;2023-04-07T08:58:55;10.07;;;9.03;;
13641;SDS011;6894;52.196;9.904;2023-04-07T09:01:21;10.73;;;9.37;;
13641;SDS011;6894;52.196;9.904;2023-04-07T09:03:50;10.70;;;9.60;;
13641;SDS011;6894;52.196;9.904;2023-04-07T09:06:17;10.50;;;9.40;;
13641;SDS011;6894;52.196;9.904;2023-04-07T09:08:44;9.77;;;8.83;;
13641;SDS011;6894;52.196;9.904;2023-04-07T09:11:10;8.93;;;8.03;;
13641;SDS011;6894;52.196;9.904;2023-04-07T09:13:38;9.03;;;8.13;;
13641;SDS011;6894;52.196;9.904;2023-04-07T09:16:05;10.13;;;8.80;;
13641;SDS011;6894;52.196;9.904;2023-04-07T09:18:32;8.47;;;7.67;;
13641;SDS011;6894;52.196;9.904;2023-04-07T09:21:00;9.73;;;7.67;;
13641;SDS011;6894;52.196;9.904;2023-04-07T09:23:29;9.10;;;7.53;;
13641;SDS011;6894;52.196;9.904;2023-04-07T09:25:57;9.50;;;8.37;;
13641;SDS011;6894;52.196;9.904;2023-04-07T09:28:37;8.47;;;7.67;;
13641;SDS011;6894;52.196;9.904;2023-04-07T09:31:07;8.63;;;7.47;;
13641;SDS011;6894;52.196;9.904;2023-04-07T09:33:33;8.87;;;7.90;;
13641;SDS011;6894;52.196;9.904;2023-04-07T09:36:01;8.00;;;6.97;;
13641;SDS011;6894;52.196;9.904;2023-04-07T09:38:32;7.33;;;6.57;;
13641;SDS011;6894;52.196;9.904;2023-04-07T09:41:06;8.83;;;7.80;;
13641;SDS011;6894;52.196;9.904;2023-04-07T09:43:34;8.17;;;7.37;;
13641;SDS011;6894;52.196;9.904;2023-04-07T09:46:11;8.43;;;7.63;;
13641;SDS011;6894;52.196;9.904;2023-04-07T09:48:39;9.57;;;7.50;;
13641;SDS011;6894;52.196;9.904;2023-04-07T09:51:08;7.77;;;7.07;;
13641;SDS011;6894;52.196;9.904;2023-04-07T09:53:40;8.33;;;7.17;;
13641;SDS011;6894;52.196;9.904;2023-04-07T09:56:11;8.43;;;7.63;;
13641;SDS011;6894;52.196;9.904;2023-04-07T10:01:25;9.63;;;7.77;;
13641;SDS011;6894;52.196;9.904;2023-04-07T10:03:52;9.20;;;7.00;;
13641;SDS011;6894;52.196;9.904;2023-04-07T10:06:20;8.37;;;7.57;;
13641;SDS011;6894;52.196;9.904;2023-04-07T10:08:47;8.37;;;7.33;;
13641;SDS011;6894;52.196;9.904;2023-04-07T10:11:14;9.43;;;6.93;;
13641;SDS011;6894;52.196;9.904;2023-04-07T10:13:42;8.93;;;7.67;;
13641;SDS011;6894;52.196;9.904;2023-04-07T10:16:09;10.20;;;7.53;;
13641;SDS011;6894;52.196;9.904;2023-04-07T10:18:37;8.77;;;7.50;;
13641;SDS011;6894;52.196;9.904;2023-04-07T10:21:05;7.93;;;7.13;;
13641;SDS011;6894;52.196;9.904;2023-04-07T10:23:40;9.20;;;7.53;;
13641;SDS011;6894;52.196;9.904;2023-04-07T10:26:14;7.80;;;6.70;;
13641;SDS011;6894;52.196;9.904;2023-04-07T10:28:43;8.27;;;7.47;;
13641;SDS011;6894;52.196;9.904;2023-04-07T10:31:14;8.60;;;7.67;;
13641;SDS011;6894;52.196;9.904;2023-04-07T10:33:45;7.73;;;6.90;;
13641;SDS011;6894;52.196;9.904;2023-04-07T10:36:13;7.60;;;6.90;;
13641;SDS011;6894;52.196;9.904;2023-04-07T10:38:40;7.97;;;7.13;;
13641;SDS011;6894;52.196;9.904;2023-04-07T10:44:00;8.17;;;7.30;;
13641;SDS011;6894;52.196;9.904;2023-04-07T10:49:34;8.77;;;7.60;;
13641;SDS011;6894;52.196;9.904;2023-04-07T10:52:20;9.00;;;7.57;;
13641;SDS011;6894;52.196;9.904;2023-04-07T10:54:48;8.53;;;7.63;;
13641;SDS011;6894;52.196;9.904;2023-04-07T10:58:12;9.93;;;7.40;;
13641;SDS011;6894;52.196;9.904;2023-04-07T11:00:40;9.30;;;7.87;;
13641;SDS011;6894;52.196;9.904;2023-04-07T11:03:09;11.47;;;8.30;;
13641;SDS011;6894;52.196;9.904;2023-04-07T11:05:39;8.90;;;7.97;;
13641;SDS011;6894;52.196;9.904;2023-04-07T11:08:06;9.67;;;8.17;;
13641;SDS011;6894;52.196;9.904;2023-04-07T11:10:33;9.07;;;7.80;;
13641;SDS011;6894;52.196;9.904;2023-04-07T11:13:01;8.67;;;7.77;;
13641;SDS011;6894;52.196;9.904;2023-04-07T11:15:30;9.90;;;7.43;;
13641;SDS011;6894;52.196;9.904;2023-04-07T11:18:14;9.20;;;7.43;;
13641;SDS011;6894;52.196;9.904;2023-04-07T11:20:44;10.20;;;7.27;;
13641;SDS011;6894;52.196;9.904;2023-04-07T11:23:13;9.87;;;7.53;;
13641;SDS011;6894;52.196;9.904;2023-04-07T11:25:41;8.27;;;6.90;;
13641;SDS011;6894;52.196;9.904;2023-04-07T11:28:09;8.47;;;7.40;;
13641;SDS011;6894;52.196;9.904;2023-04-07T11:30:37;10.63;;;8.37;;
13641;SDS011;6894;52.196;9.904;2023-04-07T11:33:13;10.87;;;8.30;;
13641;SDS011;6894;52.196;9.904;2023-04-07T11:35:47;9.27;;;8.10;;
13641;SDS011;6894;52.196;9.904;2023-04-07T11:38:14;9.50;;;8.50;;
13641;SDS011;6894;52.196;9.904;2023-04-07T11:40:41;8.20;;;7.33;;
13641;SDS011;6894;52.196;9.904;2023-04-07T11:43:15;8.57;;;7.67;;
13641;SDS011;6894;52.196;9.904;2023-04-07T11:45:43;10.77;;;7.90;;
13641;SDS011;6894;52.196;9.904;2023-04-07T11:48:25;9.30;;;8.40;;
13641;SDS011;6894;52.196;9.904;2023-04-07T11:50:54;10.53;;;9.43;;
13641;SDS011;6894;52.196;9.904;2023-04-07T11:53:24;9.90;;;8.53;;
13641;SDS011;6894;52.196;9.904;2023-04-07T11:56:02;9.57;;;8.33;;
13641;SDS011;6894;52.196;9.904;2023-04-07T11:58:31;9.27;;;8.27;;
13641;SDS011;6894;52.196;9.904;2023-04-07T12:00:59;12.23;;;8.40;;
13641;SDS011;6894;52.196;9.904;2023-04-07T12:03:30;9.37;;;8.23;;
13641;SDS011;6894;52.196;9.904;2023-04-07T12:05:58;9.77;;;8.17;;
13641;SDS011;6894;52.196;9.904;2023-04-07T12:11:07;8.97;;;8.00;;
13641;SDS011;6894;52.196;9.904;2023-04-07T12:13:34;9.90;;;8.43;;
13641;SDS011;6894;52.196;9.904;2023-04-07T12:16:02;9.93;;;8.67;;
13641;SDS011;6894;52.196;9.904;2023-04-07T12:18:29;11.57;;;9.23;;
13641;SDS011;6894;52.196;9.904;2023-04-07T12:20:56;9.80;;;8.80;;
13641;SDS011;6894;52.196;9.904;2023-04-07T12:23:24;9.27;;;8.37;;
13641;SDS011;6894;52.196;9.904;2023-04-07T12:25:51;9.63;;;8.63;;
13641;SDS011;6894;52.196;9.904;2023-04-07T12:28:18;10.00;;;8.20;;
13641;SDS011;6894;52.196;9.904;2023-04-07T12:30:44;10.60;;;8.67;;
13641;SDS011;6894;52.196;9.904;2023-04-07T12:33:11;10.77;;;8.83;;
13641;SDS011;6894;52.196;9.904;2023-04-07T12:35:38;10.53;;;9.13;;
13641;SDS011;6894;52.196;9.904;2023-04-07T12:38:05;11.90;;;8.80;;
13641;SDS011;6894;52.196;9.904;2023-04-07T12:40:33;10.80;;;9.30;;
13641;SDS011;6894;52.196;9.904;2023-04-07T12:43:01;11.00;;;9.80;;
13641;SDS011;6894;52.196;9.904;2023-04-07T12:45:28;9.77;;;8.77;;
13641;SDS011;6894;52.196;9.904;2023-04-07T12:47:56;9.70;;;8.80;;
13641;SDS011;6894;52.196;9.904;2023-04-07T12:50:23;9.83;;;8.80;;
13641;SDS011;6894;52.196;9.904;2023-04-07T12:52:50;9.87;;;8.97;;
13641;SDS011;6894;52.196;9.904;2023-04-07T12:55:18;10.20;;;9.10;;
13641;SDS011;6894;52.196;9.904;2023-04-07T12:57:46;12.43;;;9.23;;
13641;SDS011;6894;52.196;9.904;2023-04-07T13:00:13;10.93;;;8.93;;
13641;SDS011;6894;52.196;9.904;2023-04-07T13:02:40;12.67;;;10.07;;
13641;SDS011;6894;52.196;9.904;2023-04-07T13:05:07;9.77;;;8.77;;
13641;SDS011;6894;52.196;9.904;2023-04-07T13:07:35;11.40;;;9.40;;
13641;SDS011;6894;52.196;9.904;2023-04-07T13:10:02;10.53;;;8.80;;
13641;SDS011;6894;52.196;9.904;2023-04-07T13:12:30;9.67;;;8.67;;
13641;SDS011;6894;52.196;9.904;2023-04-07T13:14:58;9.63;;;8.63;;
13641;SDS011;6894;52.196;9.904;2023-04-07T13:17:26;9.57;;;8.57;;
13641;SDS011;6894;52.196;9.904;2023-04-07T13:19:52;10.73;;;9.07;;
13641;SDS011;6894;52.196;9.904;2023-04-07T13:22:19;10.33;;;7.70;;
13641;SDS011;6894;52.196;9.904;2023-04-07T13:24:46;10.57;;;7.93;;
13641;SDS011;6894;52.196;9.904;2023-04-07T13:27:13;8.70;;;7.80;;
13641;SDS011;6894;52.196;9.904;2023-04-07T13:29:40;8.90;;;7.90;;
13641;SDS011;6894;52.196;9.904;2023-04-07T13:32:08;9.03;;;7.67;;
13641;SDS011;6894;52.196;9.904;2023-04-07T13:34:37;8.57;;;6.80;;
13641;SDS011;6894;52.196;9.904;2023-04-07T13:37:04;10.80;;;7.60;;
13641;SDS011;6894;52.196;9.904;2023-04-07T13:39:31;8.00;;;7.20;;
13641;SDS011;6894;52.196;9.904;2023-04-07T13:41:58;8.17;;;7.37;;
13641;SDS011;6894;52.196;9.904;2023-04-07T13:44:25;9.20;;;7.47;;
13641;SDS011;6894;52.196;9.904;2023-04-07T13:46:53;9.00;;;7.77;;
13641;SDS011;6894;52.196;9.904;2023-04-07T13:49:22;8.87;;;6.80;;
13641;SDS011;6894;52.196;9.904;2023-04-07T13:51:49;9.03;;;7.57;;
13641;SDS011;6894;52.196;9.904;2023-04-07T13:54:16;8.13;;;7.03;;
13641;SDS011;6894;52.196;9.904;2023-04-07T13:56:43;7.63;;;6.83;;
13641;SDS011;6894;52.196;9.904;2023-04-07T13:59:12;7.60;;;6.87;;
13641;SDS011;6894;52.196;9.904;2023-04-07T14:01:39;7.43;;;6.63;;
13641;SDS011;6894;52.196;9.904;2023-04-07T14:04:05;7.33;;;6.63;;
13641;SDS011;6894;52.196;9.904;2023-04-07T14:06:34;8.00;;;6.97;;
13641;SDS011;6894;52.196;9.904;2023-04-07T14:09:02;6.70;;;6.00;;
13641;SDS011;6894;52.196;9.904;2023-04-07T14:11:30;6.47;;;5.87;;
13641;SDS011;6894;52.196;9.904;2023-04-07T14:13:58;7.23;;;5.70;;
13641;SDS011;6894;52.196;9.904;2023-04-07T14:16:25;7.40;;;5.53;;
13641;SDS011;6894;52.196;9.904;2023-04-07T14:18:52;6.67;;;5.57;;
13641;SDS011;6894;52.196;9.904;2023-04-07T14:21:19;6.50;;;5.70;;
13641;SDS011;6894;52.196;9.904;2023-04-07T14:23:48;6.20;;;5.37;;
13641;SDS011;6894;52.196;9.904;2023-04-07T14:26:15;6.47;;;5.87;;
13641;SDS011;6894;52.196;9.904;2023-04-07T14:28:42;7.03;;;5.57;;
13641;SDS011;6894;52.196;9.904;2023-04-07T14:31:12;6.20;;;5.53;;
13641;SDS011;6894;52.196;9.904;2023-04-07T14:33:40;7.03;;;6.33;;
13641;SDS011;6894;52.196;9.904;2023-04-07T14:36:07;6.60;;;5.67;;
13641;SDS011;6894;52.196;9.904;2023-04-07T14:38:34;5.80;;;5.30;;
13641;SDS011;6894;52.196;9.904;2023-04-07T14:41:02;5.73;;;5.03;;
13641;SDS011;6894;52.196;9.904;2023-04-07T14:43:28;6.83;;;5.60;;
13641;SDS011;6894;52.196;9.904;2023-04-07T14:45:55;7.43;;;5.97;;
13641;SDS011;6894;52.196;9.904;2023-04-07T14:48:23;5.83;;;5.27;;
13641;SDS011;6894;52.196;9.904;2023-04-07T14:50:50;7.93;;;5.80;;
13641;SDS011;6894;52.196;9.904;2023-04-07T14:53:17;6.43;;;5.80;;
13641;SDS011;6894;52.196;9.904;2023-04-07T14:55:45;5.93;;;5.33;;
13641;SDS011;6894;52.196;9.904;2023-04-07T14:58:14;5.70;;;5.13;;
13641;SDS011;6894;52.196;9.904;2023-04-07T15:00:41;6.30;;;4.50;;
13641;SDS011;6894;52.196;9.904;2023-04-07T15:03:08;6.80;;;5.23;;
13641;SDS011;6894;52.196;9.904;2023-04-07T15:05:35;5.93;;;5.00;;
13641;SDS011;6894;52.196;9.904;2023-04-07T15:08:02;6.80;;;5.33;;
13641;SDS011;6894;52.196;9.904;2023-04-07T15:10:28;5.53;;;5.00;;